sensor_id;sensor_type;location;lat;lon;timestamp;pressure;altitude;pressure_sealevel;temperature
18713;BMP280;9485;49.386;8.674;2023-07-29T00:00:43;99883.59;;;21.16
18713;BMP280;9485;49.386;8.674;2023-07-29T00:06:03;99872.13;;;21.16
18713;BMP280;9485;49.386;8.674;2023-07-29T00:11:25;99868.69;;;21.18
18713;BMP280;9485;49.386;8.674;2023-07-29T00:16:47;99872.28;;;21.18
18713;BMP280;9485;49.386;8.674;2023-07-29T00:22:09;99870.38;;;21.21
18713;BMP280;9485;49.386;8.674;2023-07-29T00:27:29;99861.00;;;21.20
18713;BMP280;9485;49.386;8.674;2023-07-29T00:32:52;99862.16;;;21.17
18713;BMP280;9485;49.386;8.674;2023-07-29T00:38:13;99845.34;;;21.14
18713;BMP280;9485;49.386;8.674;2023-07-29T00:43:33;99839.00;;;21.15
18713;BMP280;9485;49.386;8.674;2023-07-29T00:48:57;99834.63;;;21.15
18713;BMP280;9485;49.386;8.674;2023-07-29T00:54:17;99832.56;;;21.08
18713;BMP280;9485;49.386;8.674;2023-07-29T00:59:38;99828.72;;;21.05
18713;BMP280;9485;49.386;8.674;2023-07-29T01:05:06;99815.38;;;21.00
18713;BMP280;9485;49.386;8.674;2023-07-29T01:10:38;99825.16;;;20.97
18713;BMP280;9485;49.386;8.674;2023-07-29T01:16:11;99818.84;;;20.99
18713;BMP280;9485;49.386;8.674;2023-07-29T01:21:38;99812.09;;;21.04
18713;BMP280;9485;49.386;8.674;2023-07-29T01:27:01;99813.81;;;21.07
18713;BMP280;9485;49.386;8.674;2023-07-29T01:32:32;99804.03;;;21.10
18713;BMP280;9485;49.386;8.674;2023-07-29T01:38:03;99797.72;;;21.11
18713;BMP280;9485;49.386;8.674;2023-07-29T01:43:27;99791.38;;;21.13
18713;BMP280;9485;49.386;8.674;2023-07-29T01:48:48;99799.81;;;21.11
18713;BMP280;9485;49.386;8.674;2023-07-29T01:54:09;99800.59;;;21.11
18713;BMP280;9485;49.386;8.674;2023-07-29T01:59:31;99796.59;;;21.07
18713;BMP280;9485;49.386;8.674;2023-07-29T02:04:52;99784.31;;;21.06
18713;BMP280;9485;49.386;8.674;2023-07-29T02:10:16;99792.00;;;21.04
18713;BMP280;9485;49.386;8.674;2023-07-29T02:15:38;99772.31;;;21.00
18713;BMP280;9485;49.386;8.674;2023-07-29T02:20:58;99788.94;;;21.02
18713;BMP280;9485;49.386;8.674;2023-07-29T02:26:22;99785.66;;;21.05
18713;BMP280;9485;49.386;8.674;2023-07-29T02:31:44;99790.66;;;21.05
18713;BMP280;9485;49.386;8.674;2023-07-29T02:37:04;99801.41;;;21.04
18713;BMP280;9485;49.386;8.674;2023-07-29T02:42:25;99805.75;;;21.05
18713;BMP280;9485;49.386;8.674;2023-07-29T02:47:47;99800.03;;;21.05
18713;BMP280;9485;49.386;8.674;2023-07-29T02:53:08;99794.47;;;21.07
18713;BMP280;9485;49.386;8.674;2023-07-29T02:58:29;99798.47;;;21.12
18713;BMP280;9485;49.386;8.674;2023-07-29T03:03:51;99784.16;;;21.04
18713;BMP280;9485;49.386;8.674;2023-07-29T03:09:12;99778.44;;;21.04
18713;BMP280;9485;49.386;8.674;2023-07-29T03:14:33;99775.38;;;21.02
18713;BMP280;9485;49.386;8.674;2023-07-29T03:19:56;99757.56;;;21.04
18713;BMP280;9485;49.386;8.674;2023-07-29T03:25:16;99754.09;;;21.05
18713;BMP280;9485;49.386;8.674;2023-07-29T03:30:37;99747.78;;;21.07
18713;BMP280;9485;49.386;8.674;2023-07-29T03:35:59;99741.06;;;21.12
18713;BMP280;9485;49.386;8.674;2023-07-29T03:41:21;99732.03;;;21.15
18713;BMP280;9485;49.386;8.674;2023-07-29T03:46:41;99718.44;;;21.15
18713;BMP280;9485;49.386;8.674;2023-07-29T03:52:06;99715.91;;;21.19
18713;BMP280;9485;49.386;8.674;2023-07-29T03:57:26;99731.22;;;21.22
18713;BMP280;9485;49.386;8.674;2023-07-29T04:02:49;99735.19;;;21.26
18713;BMP280;9485;49.386;8.674;2023-07-29T04:08:11;99736.88;;;21.29
18713;BMP280;9485;49.386;8.674;2023-07-29T04:13:32;99735.38;;;21.28
18713;BMP280;9485;49.386;8.674;2023-07-29T04:18:53;99725.75;;;21.33
18713;BMP280;9485;49.386;8.674;2023-07-29T04:24:16;99715.81;;;21.34
18713;BMP280;9485;49.386;8.674;2023-07-29T04:29:37;99715.94;;;21.36
18713;BMP280;9485;49.386;8.674;2023-07-29T04:34:58;99738.69;;;21.42
18713;BMP280;9485;49.386;8.674;2023-07-29T04:40:19;99754.78;;;21.45
18713;BMP280;9485;49.386;8.674;2023-07-29T04:45:43;99769.34;;;21.15
18713;BMP280;9485;49.386;8.674;2023-07-29T04:51:05;99781.56;;;20.52
18713;BMP280;9485;49.386;8.674;2023-07-29T04:56:27;99768.47;;;20.19
18713;BMP280;9485;49.386;8.674;2023-07-29T05:01:48;99790.69;;;20.04
18713;BMP280;9485;49.386;8.674;2023-07-29T05:07:09;99795.88;;;19.98
18713;BMP280;9485;49.386;8.674;2023-07-29T05:12:31;99802.34;;;19.91
18713;BMP280;9485;49.386;8.674;2023-07-29T05:17:52;99778.09;;;19.84
18713;BMP280;9485;49.386;8.674;2023-07-29T05:23:13;99776.94;;;19.80
18713;BMP280;9485;49.386;8.674;2023-07-29T05:28:35;99766.44;;;19.82
18713;BMP280;9485;49.386;8.674;2023-07-29T05:33:55;99789.94;;;19.81
18713;BMP280;9485;49.386;8.674;2023-07-29T05:39:19;99796.41;;;19.89
18713;BMP280;9485;49.386;8.674;2023-07-29T05:44:41;99781.34;;;19.96
18713;BMP280;9485;49.386;8.674;2023-07-29T05:50:01;99798.69;;;19.90
18713;BMP280;9485;49.386;8.674;2023-07-29T05:55:23;99789.19;;;19.95
18713;BMP280;9485;49.386;8.674;2023-07-29T06:00:46;99803.50;;;19.95
18713;BMP280;9485;49.386;8.674;2023-07-29T06:06:06;99809.59;;;19.99
18713;BMP280;9485;49.386;8.674;2023-07-29T06:11:28;99794.84;;;20.10
18713;BMP280;9485;49.386;8.674;2023-07-29T06:16:50;99781.88;;;20.17
18713;BMP280;9485;49.386;8.674;2023-07-29T06:22:12;99780.69;;;20.27
18713;BMP280;9485;49.386;8.674;2023-07-29T06:27:33;99767.28;;;20.37
18713;BMP280;9485;49.386;8.674;2023-07-29T06:32:55;99785.63;;;20.41
18713;BMP280;9485;49.386;8.674;2023-07-29T06:38:15;99792.09;;;20.42
18713;BMP280;9485;49.386;8.674;2023-07-29T06:43:40;99805.09;;;20.43
18713;BMP280;9485;49.386;8.674;2023-07-29T06:49:02;99804.31;;;20.50
18713;BMP280;9485;49.386;8.674;2023-07-29T06:54:24;99802.72;;;20.64
18713;BMP280;9485;49.386;8.674;2023-07-29T06:59:45;99793.22;;;20.93
18713;BMP280;9485;49.386;8.674;2023-07-29T07:05:09;99792.78;;;21.04
18713;BMP280;9485;49.386;8.674;2023-07-29T07:10:29;99804.28;;;21.28
18713;BMP280;9485;49.386;8.674;2023-07-29T07:15:50;99817.13;;;21.52
18713;BMP280;9485;49.386;8.674;2023-07-29T07:21:12;99801.38;;;21.60
18713;BMP280;9485;49.386;8.674;2023-07-29T07:26:33;99814.06;;;23.26
18713;BMP280;9485;49.386;8.674;2023-07-29T07:31:54;99808.81;;;23.77
18713;BMP280;9485;49.386;8.674;2023-07-29T07:37:16;99798.47;;;24.38
18713;BMP280;9485;49.386;8.674;2023-07-29T07:42:37;99800.28;;;24.34
18713;BMP280;9485;49.386;8.674;2023-07-29T07:47:57;99816.56;;;23.75
18713;BMP280;9485;49.386;8.674;2023-07-29T07:53:19;99825.97;;;23.40
18713;BMP280;9485;49.386;8.674;2023-07-29T07:58:40;99809.22;;;23.29
18713;BMP280;9485;49.386;8.674;2023-07-29T08:04:01;99821.59;;;23.22
18713;BMP280;9485;49.386;8.674;2023-07-29T08:09:23;99828.84;;;23.13
18713;BMP280;9485;49.386;8.674;2023-07-29T08:14:43;99835.03;;;23.10
18713;BMP280;9485;49.386;8.674;2023-07-29T08:20:05;99829.00;;;22.98
18713;BMP280;9485;49.386;8.674;2023-07-29T08:25:29;99828.41;;;23.00
18713;BMP280;9485;49.386;8.674;2023-07-29T08:30:49;99817.44;;;23.06
18713;BMP280;9485;49.386;8.674;2023-07-29T08:36:12;99825.19;;;23.39
18713;BMP280;9485;49.386;8.674;2023-07-29T08:41:41;99832.25;;;23.55
18713;BMP280;9485;49.386;8.674;2023-07-29T08:47:06;99844.88;;;23.69
18713;BMP280;9485;49.386;8.674;2023-07-29T08:52:29;99843.81;;;23.64
18713;BMP280;9485;49.386;8.674;2023-07-29T08:57:52;99834.03;;;23.77
18713;BMP280;9485;49.386;8.674;2023-07-29T09:03:14;99852.69;;;23.76
18713;BMP280;9485;49.386;8.674;2023-07-29T09:08:36;99857.28;;;23.62
18713;BMP280;9485;49.386;8.674;2023-07-29T09:13:58;99848.78;;;23.54
18713;BMP280;9485;49.386;8.674;2023-07-29T09:19:19;99844.22;;;23.87
18713;BMP280;9485;49.386;8.674;2023-07-29T09:24:40;99833.81;;;25.33
18713;BMP280;9485;49.386;8.674;2023-07-29T09:30:02;99839.75;;;26.57
18713;BMP280;9485;49.386;8.674;2023-07-29T09:35:27;99828.03;;;26.87
18713;BMP280;9485;49.386;8.674;2023-07-29T09:40:48;99803.75;;;26.92
18713;BMP280;9485;49.386;8.674;2023-07-29T09:46:10;99814.66;;;27.92
18713;BMP280;9485;49.386;8.674;2023-07-29T09:51:37;99814.84;;;28.53
18713;BMP280;9485;49.386;8.674;2023-07-29T09:57:02;99818.91;;;28.85
18713;BMP280;9485;49.386;8.674;2023-07-29T10:02:24;99817.81;;;29.03
18713;BMP280;9485;49.386;8.674;2023-07-29T10:07:49;99816.22;;;28.89
18713;BMP280;9485;49.386;8.674;2023-07-29T10:13:12;99809.78;;;28.90
18713;BMP280;9485;49.386;8.674;2023-07-29T10:18:35;99809.06;;;28.42
18713;BMP280;9485;49.386;8.674;2023-07-29T10:24:00;99829.44;;;27.96
18713;BMP280;9485;49.386;8.674;2023-07-29T10:29:24;99819.59;;;28.24
18713;BMP280;9485;49.386;8.674;2023-07-29T10:34:47;99815.56;;;29.01
18713;BMP280;9485;49.386;8.674;2023-07-29T10:40:10;99817.66;;;28.88
18713;BMP280;9485;49.386;8.674;2023-07-29T10:45:37;99819.66;;;29.35
18713;BMP280;9485;49.386;8.674;2023-07-29T10:51:28;99811.25;;;29.66
18713;BMP280;9485;49.386;8.674;2023-07-29T10:56:50;99799.31;;;30.27
18713;BMP280;9485;49.386;8.674;2023-07-29T11:02:18;99801.53;;;30.68
18713;BMP280;9485;49.386;8.674;2023-07-29T11:07:45;99794.44;;;31.16
18713;BMP280;9485;49.386;8.674;2023-07-29T11:13:06;99784.41;;;31.19
18713;BMP280;9485;49.386;8.674;2023-07-29T11:18:31;99795.91;;;31.45
18713;BMP280;9485;49.386;8.674;2023-07-29T11:23:54;99803.44;;;31.50
18713;BMP280;9485;49.386;8.674;2023-07-29T11:29:16;99803.91;;;31.45
18713;BMP280;9485;49.386;8.674;2023-07-29T11:34:37;99802.31;;;31.42
18713;BMP280;9485;49.386;8.674;2023-07-29T11:40:01;99793.25;;;31.51
18713;BMP280;9485;49.386;8.674;2023-07-29T11:45:22;99788.56;;;31.44
18713;BMP280;9485;49.386;8.674;2023-07-29T11:50:45;99778.81;;;31.84
18713;BMP280;9485;49.386;8.674;2023-07-29T11:56:07;99791.88;;;32.14
18713;BMP280;9485;49.386;8.674;2023-07-29T12:01:28;99780.00;;;32.43
18713;BMP280;9485;49.386;8.674;2023-07-29T12:06:49;99777.91;;;32.61
18713;BMP280;9485;49.386;8.674;2023-07-29T12:12:11;99776.16;;;32.71
18713;BMP280;9485;49.386;8.674;2023-07-29T12:17:39;99773.50;;;32.77
18713;BMP280;9485;49.386;8.674;2023-07-29T12:23:00;99777.34;;;32.82
18713;BMP280;9485;49.386;8.674;2023-07-29T12:28:25;99783.69;;;33.28
18713;BMP280;9485;49.386;8.674;2023-07-29T12:33:46;99787.78;;;33.39
18713;BMP280;9485;49.386;8.674;2023-07-29T12:39:17;99790.41;;;33.67
18713;BMP280;9485;49.386;8.674;2023-07-29T12:44:39;99793.50;;;33.91
18713;BMP280;9485;49.386;8.674;2023-07-29T12:50:00;99782.72;;;33.59
18713;BMP280;9485;49.386;8.674;2023-07-29T12:55:20;99777.75;;;33.26
18713;BMP280;9485;49.386;8.674;2023-07-29T13:00:42;99772.97;;;33.71
18713;BMP280;9485;49.386;8.674;2023-07-29T13:06:03;99779.84;;;34.17
18713;BMP280;9485;49.386;8.674;2023-07-29T13:11:24;99770.81;;;33.91
18713;BMP280;9485;49.386;8.674;2023-07-29T13:16:46;99763.53;;;33.92
18713;BMP280;9485;49.386;8.674;2023-07-29T13:22:07;99764.19;;;33.35
18713;BMP280;9485;49.386;8.674;2023-07-29T13:27:28;99767.31;;;32.69
18713;BMP280;9485;49.386;8.674;2023-07-29T13:32:49;99758.41;;;32.50
18713;BMP280;9485;49.386;8.674;2023-07-29T13:38:10;99757.31;;;31.93
18713;BMP280;9485;49.386;8.674;2023-07-29T13:43:31;99758.41;;;32.50
18713;BMP280;9485;49.386;8.674;2023-07-29T13:48:53;99750.91;;;32.12
18713;BMP280;9485;49.386;8.674;2023-07-29T13:54:13;99751.56;;;32.10
18713;BMP280;9485;49.386;8.674;2023-07-29T13:59:34;99760.06;;;32.05
18713;BMP280;9485;49.386;8.674;2023-07-29T14:04:55;99759.00;;;32.13
18713;BMP280;9485;49.386;8.674;2023-07-29T14:10:16;99777.94;;;32.95
18713;BMP280;9485;49.386;8.674;2023-07-29T14:15:37;99769.41;;;33.56
18713;BMP280;9485;49.386;8.674;2023-07-29T14:20:58;99771.94;;;33.82
18713;BMP280;9485;49.386;8.674;2023-07-29T14:26:20;99779.16;;;33.99
18713;BMP280;9485;49.386;8.674;2023-07-29T14:31:40;99782.59;;;34.32
18713;BMP280;9485;49.386;8.674;2023-07-29T14:37:03;99771.94;;;33.82
18713;BMP280;9485;49.386;8.674;2023-07-29T14:42:24;99771.41;;;33.68
18713;BMP280;9485;49.386;8.674;2023-07-29T14:47:45;99779.47;;;33.51
18713;BMP280;9485;49.386;8.674;2023-07-29T14:53:07;99768.91;;;33.07
18713;BMP280;9485;49.386;8.674;2023-07-29T14:58:28;99753.09;;;32.79
18713;BMP280;9485;49.386;8.674;2023-07-29T15:03:49;99770.53;;;32.27
18713;BMP280;9485;49.386;8.674;2023-07-29T15:09:11;99761.00;;;31.78
18713;BMP280;9485;49.386;8.674;2023-07-29T15:14:31;99743.56;;;31.34
18713;BMP280;9485;49.386;8.674;2023-07-29T15:19:52;99744.72;;;30.98
18713;BMP280;9485;49.386;8.674;2023-07-29T15:25:14;99756.09;;;30.63
18713;BMP280;9485;49.386;8.674;2023-07-29T15:30:36;99750.66;;;30.29
18713;BMP280;9485;49.386;8.674;2023-07-29T15:35:58;99740.34;;;30.13
18713;BMP280;9485;49.386;8.674;2023-07-29T15:41:20;99733.25;;;30.02
18713;BMP280;9485;49.386;8.674;2023-07-29T15:46:40;99732.91;;;29.83
18713;BMP280;9485;49.386;8.674;2023-07-29T15:52:01;99727.28;;;29.73
18713;BMP280;9485;49.386;8.674;2023-07-29T15:57:23;99733.44;;;29.66
18713;BMP280;9485;49.386;8.674;2023-07-29T16:02:44;99733.63;;;29.57
18713;BMP280;9485;49.386;8.674;2023-07-29T16:08:04;99739.22;;;29.39
18713;BMP280;9485;49.386;8.674;2023-07-29T16:13:26;99734.44;;;29.19
18713;BMP280;9485;49.386;8.674;2023-07-29T16:18:46;99740.94;;;29.06
18713;BMP280;9485;49.386;8.674;2023-07-29T16:24:07;99745.22;;;28.92
18713;BMP280;9485;49.386;8.674;2023-07-29T16:29:29;99738.44;;;28.76
18713;BMP280;9485;49.386;8.674;2023-07-29T16:34:50;99738.16;;;28.58
18713;BMP280;9485;49.386;8.674;2023-07-29T16:40:11;99747.94;;;28.40
18713;BMP280;9485;49.386;8.674;2023-07-29T16:45:33;99773.16;;;27.67
18713;BMP280;9485;49.386;8.674;2023-07-29T16:50:53;99778.34;;;26.58
18713;BMP280;9485;49.386;8.674;2023-07-29T16:56:14;99797.00;;;26.04
18713;BMP280;9485;49.386;8.674;2023-07-29T17:01:36;99824.25;;;25.31
18713;BMP280;9485;49.386;8.674;2023-07-29T17:06:56;99823.56;;;24.64
18713;BMP280;9485;49.386;8.674;2023-07-29T17:12:17;99800.13;;;24.23
18713;BMP280;9485;49.386;8.674;2023-07-29T17:17:39;99789.28;;;23.85
18713;BMP280;9485;49.386;8.674;2023-07-29T17:23:00;99775.72;;;23.69
18713;BMP280;9485;49.386;8.674;2023-07-29T17:28:21;99768.84;;;23.55
18713;BMP280;9485;49.386;8.674;2023-07-29T17:33:43;99771.25;;;23.49
18713;BMP280;9485;49.386;8.674;2023-07-29T17:39:04;99765.16;;;23.45
18713;BMP280;9485;49.386;8.674;2023-07-29T17:44:27;99768.19;;;23.47
18713;BMP280;9485;49.386;8.674;2023-07-29T17:49:49;99773.34;;;23.48
18713;BMP280;9485;49.386;8.674;2023-07-29T17:55:09;99795.06;;;23.49
18713;BMP280;9485;49.386;8.674;2023-07-29T18:00:32;99791.16;;;23.54
18713;BMP280;9485;49.386;8.674;2023-07-29T18:05:54;99801.91;;;23.54
18713;BMP280;9485;49.386;8.674;2023-07-29T18:11:16;99803.91;;;23.61
18713;BMP280;9485;49.386;8.674;2023-07-29T18:16:37;99797.97;;;23.59
18713;BMP280;9485;49.386;8.674;2023-07-29T18:22:01;99810.44;;;23.61
18713;BMP280;9485;49.386;8.674;2023-07-29T18:27:22;99810.09;;;23.57
18713;BMP280;9485;49.386;8.674;2023-07-29T18:32:44;99805.22;;;23.50
18713;BMP280;9485;49.386;8.674;2023-07-29T18:38:06;99807.63;;;23.45
18713;BMP280;9485;49.386;8.674;2023-07-29T18:43:27;99808.19;;;23.34
18713;BMP280;9485;49.386;8.674;2023-07-29T18:48:47;99798.59;;;23.31
18713;BMP280;9485;49.386;8.674;2023-07-29T18:54:09;99802.09;;;23.30
18713;BMP280;9485;49.386;8.674;2023-07-29T18:59:30;99816.00;;;23.24
18713;BMP280;9485;49.386;8.674;2023-07-29T19:04:50;99806.44;;;23.21
18713;BMP280;9485;49.386;8.674;2023-07-29T19:10:12;99802.53;;;23.26
18713;BMP280;9485;49.386;8.674;2023-07-29T19:15:32;99805.25;;;23.24
18713;BMP280;9485;49.386;8.674;2023-07-29T19:20:53;99816.75;;;23.24
18713;BMP280;9485;49.386;8.674;2023-07-29T19:26:15;99813.88;;;23.24
18713;BMP280;9485;49.386;8.674;2023-07-29T19:31:40;99819.16;;;23.18
18713;BMP280;9485;49.386;8.674;2023-07-29T19:37:01;99821.13;;;23.16
18713;BMP280;9485;49.386;8.674;2023-07-29T19:42:23;99834.13;;;23.07
18713;BMP280;9485;49.386;8.674;2023-07-29T19:47:43;99821.91;;;22.99
18713;BMP280;9485;49.386;8.674;2023-07-29T19:53:03;99849.78;;;22.97
18713;BMP280;9485;49.386;8.674;2023-07-29T19:58:27;99847.06;;;22.99
18713;BMP280;9485;49.386;8.674;2023-07-29T20:03:48;99836.13;;;22.97
18713;BMP280;9485;49.386;8.674;2023-07-29T20:09:08;99832.66;;;22.99
18713;BMP280;9485;49.386;8.674;2023-07-29T20:14:31;99834.16;;;23.00
18713;BMP280;9485;49.386;8.674;2023-07-29T20:19:52;99845.38;;;22.96
18713;BMP280;9485;49.386;8.674;2023-07-29T20:25:14;99843.78;;;22.85
18713;BMP280;9485;49.386;8.674;2023-07-29T20:30:37;99851.06;;;22.86
18713;BMP280;9485;49.386;8.674;2023-07-29T20:35:59;99851.06;;;22.86
18713;BMP280;9485;49.386;8.674;2023-07-29T20:41:22;99849.97;;;22.82
18713;BMP280;9485;49.386;8.674;2023-07-29T20:46:45;99850.63;;;22.90
18713;BMP280;9485;49.386;8.674;2023-07-29T20:52:08;99835.22;;;22.95
18713;BMP280;9485;49.386;8.674;2023-07-29T20:57:29;99851.28;;;22.98
18713;BMP280;9485;49.386;8.674;2023-07-29T21:02:52;99868.31;;;23.03
18713;BMP280;9485;49.386;8.674;2023-07-29T21:08:12;99870.19;;;23.08
18713;BMP280;9485;49.386;8.674;2023-07-29T21:13:33;99880.69;;;23.13
18713;BMP280;9485;49.386;8.674;2023-07-29T21:18:55;99876.09;;;23.10
18713;BMP280;9485;49.386;8.674;2023-07-29T21:24:17;99870.84;;;23.16
18713;BMP280;9485;49.386;8.674;2023-07-29T21:29:37;99877.78;;;23.13
18713;BMP280;9485;49.386;8.674;2023-07-29T21:34:59;99866.53;;;23.08
18713;BMP280;9485;49.386;8.674;2023-07-29T21:40:23;99895.66;;;22.95
18713;BMP280;9485;49.386;8.674;2023-07-29T21:45:44;99887.72;;;22.86
18713;BMP280;9485;49.386;8.674;2023-07-29T21:51:06;99888.66;;;22.55
18713;BMP280;9485;49.386;8.674;2023-07-29T21:56:29;99895.88;;;22.22
18713;BMP280;9485;49.386;8.674;2023-07-29T22:01:49;99894.22;;;21.94
18713;BMP280;9485;49.386;8.674;2023-07-29T22:07:11;99908.81;;;21.89
18713;BMP280;9485;49.386;8.674;2023-07-29T22:12:32;99901.06;;;21.75
18713;BMP280;9485;49.386;8.674;2023-07-29T22:17:53;99899.00;;;21.68
18713;BMP280;9485;49.386;8.674;2023-07-29T22:23:14;99912.09;;;21.61
18713;BMP280;9485;49.386;8.674;2023-07-29T22:28:35;99904.41;;;21.64
18713;BMP280;9485;49.386;8.674;2023-07-29T22:33:57;99923.91;;;21.65
18713;BMP280;9485;49.386;8.674;2023-07-29T22:39:19;99901.47;;;21.71
18713;BMP280;9485;49.386;8.674;2023-07-29T22:44:40;99899.38;;;21.72
18713;BMP280;9485;49.386;8.674;2023-07-29T22:50:00;99887.09;;;21.71
18713;BMP280;9485;49.386;8.674;2023-07-29T22:55:24;99886.56;;;21.65
18713;BMP280;9485;49.386;8.674;2023-07-29T23:00:47;99873.66;;;21.49
18713;BMP280;9485;49.386;8.674;2023-07-29T23:06:10;99878.94;;;21.60
18713;BMP280;9485;49.386;8.674;2023-07-29T23:11:33;99886.22;;;21.61
18713;BMP280;9485;49.386;8.674;2023-07-29T23:16:53;99902.53;;;21.59
18713;BMP280;9485;49.386;8.674;2023-07-29T23:22:14;99895.03;;;21.63
18713;BMP280;9485;49.386;8.674;2023-07-29T23:27:36;99893.84;;;21.66
18713;BMP280;9485;49.386;8.674;2023-07-29T23:32:56;99898.59;;;21.71
18713;BMP280;9485;49.386;8.674;2023-07-29T23:38:17;99906.66;;;21.73
18713;BMP280;9485;49.386;8.674;2023-07-29T23:43:42;99910.28;;;21.73
18713;BMP280;9485;49.386;8.674;2023-07-29T23:49:02;99910.44;;;21.75
18713;BMP280;9485;49.386;8.674;2023-07-29T23:54:23;99898.44;;;21.69
18713;BMP280;9485;49.386;8.674;2023-07-29T23:59:45;99909.94;;;21.69
